sensor_id;sensor_type;location;lat;lon;timestamp;P1;durP1;ratioP1;P2;durP2;ratioP2
20695;SDS011;10507;52.754;13.040;2023-05-10T00:00:17;7.25;;;4.15;;
20695;SDS011;10507;52.754;13.040;2023-05-10T00:02:45;7.65;;;4.13;;
20695;SDS011;10507;52.754;13.040;2023-05-10T00:05:16;5.97;;;4.22;;
20695;SDS011;10507;52.754;13.040;2023-05-10T00:07:44;8.50;;;4.50;;
20695;SDS011;10507;52.754;13.040;2023-05-10T00:10:12;6.78;;;4.05;;
20695;SDS011;10507;52.754;13.040;2023-05-10T00:12:40;6.18;;;3.67;;
20695;SDS011;10507;52.754;13.040;2023-05-10T00:15:08;7.78;;;4.00;;
20695;SDS011;10507;52.754;13.040;2023-05-10T00:17:36;7.80;;;4.55;;
20695;SDS011;10507;52.754;13.040;2023-05-10T00:20:04;6.38;;;4.30;;
20695;SDS011;10507;52.754;13.040;2023-05-10T00:22:34;6.28;;;4.45;;
20695;SDS011;10507;52.754;13.040;2023-05-10T00:25:02;7.07;;;4.60;;
20695;SDS011;10507;52.754;13.040;2023-05-10T00:27:31;5.88;;;4.00;;
20695;SDS011;10507;52.754;13.040;2023-05-10T00:29:58;8.93;;;4.60;;
20695;SDS011;10507;52.754;13.040;2023-05-10T00:32:26;7.75;;;4.50;;
20695;SDS011;10507;52.754;13.040;2023-05-10T00:34:54;7.53;;;4.10;;
20695;SDS011;10507;52.754;13.040;2023-05-10T00:37:22;6.05;;;4.50;;
20695;SDS011;10507;52.754;13.040;2023-05-10T00:39:51;7.78;;;4.10;;
20695;SDS011;10507;52.754;13.040;2023-05-10T00:42:19;8.48;;;4.88;;
20695;SDS011;10507;52.754;13.040;2023-05-10T00:44:47;9.35;;;5.13;;
20695;SDS011;10507;52.754;13.040;2023-05-10T00:47:15;8.23;;;4.70;;
20695;SDS011;10507;52.754;13.040;2023-05-10T00:49:43;6.72;;;4.55;;
20695;SDS011;10507;52.754;13.040;2023-05-10T00:52:13;7.72;;;4.70;;
20695;SDS011;10507;52.754;13.040;2023-05-10T00:54:41;6.03;;;4.25;;
20695;SDS011;10507;52.754;13.040;2023-05-10T00:57:10;6.60;;;5.13;;
20695;SDS011;10507;52.754;13.040;2023-05-10T00:59:38;8.48;;;4.93;;
20695;SDS011;10507;52.754;13.040;2023-05-10T01:02:06;10.20;;;5.40;;
20695;SDS011;10507;52.754;13.040;2023-05-10T01:04:34;6.07;;;4.32;;
20695;SDS011;10507;52.754;13.040;2023-05-10T01:07:03;10.43;;;4.83;;
20695;SDS011;10507;52.754;13.040;2023-05-10T01:09:31;7.78;;;4.80;;
20695;SDS011;10507;52.754;13.040;2023-05-10T01:12:00;7.97;;;4.90;;
20695;SDS011;10507;52.754;13.040;2023-05-10T01:14:31;8.77;;;4.85;;
20695;SDS011;10507;52.754;13.040;2023-05-10T01:16:59;9.10;;;5.35;;
20695;SDS011;10507;52.754;13.040;2023-05-10T01:19:28;7.97;;;5.03;;
20695;SDS011;10507;52.754;13.040;2023-05-10T01:22:02;6.22;;;4.70;;
20695;SDS011;10507;52.754;13.040;2023-05-10T01:24:46;10.95;;;5.07;;
20695;SDS011;10507;52.754;13.040;2023-05-10T01:27:38;7.05;;;5.13;;
20695;SDS011;10507;52.754;13.040;2023-05-10T01:33:54;8.18;;;5.05;;
20695;SDS011;10507;52.754;13.040;2023-05-10T01:36:27;6.88;;;4.82;;
20695;SDS011;10507;52.754;13.040;2023-05-10T01:38:59;11.02;;;5.05;;
20695;SDS011;10507;52.754;13.040;2023-05-10T01:41:36;7.05;;;5.10;;
20695;SDS011;10507;52.754;13.040;2023-05-10T01:44:09;9.57;;;5.38;;
20695;SDS011;10507;52.754;13.040;2023-05-10T01:46:43;8.95;;;5.47;;
20695;SDS011;10507;52.754;13.040;2023-05-10T01:49:18;8.55;;;5.43;;
20695;SDS011;10507;52.754;13.040;2023-05-10T01:51:58;8.10;;;5.40;;
20695;SDS011;10507;52.754;13.040;2023-05-10T01:54:28;7.90;;;5.55;;
20695;SDS011;10507;52.754;13.040;2023-05-10T01:56:58;7.85;;;5.25;;
20695;SDS011;10507;52.754;13.040;2023-05-10T01:59:30;7.53;;;5.38;;
20695;SDS011;10507;52.754;13.040;2023-05-10T02:02:02;7.55;;;4.65;;
20695;SDS011;10507;52.754;13.040;2023-05-10T02:04:34;7.40;;;5.53;;
20695;SDS011;10507;52.754;13.040;2023-05-10T02:07:04;8.00;;;5.03;;
20695;SDS011;10507;52.754;13.040;2023-05-10T02:09:33;9.23;;;5.78;;
20695;SDS011;10507;52.754;13.040;2023-05-10T02:12:02;7.80;;;5.30;;
20695;SDS011;10507;52.754;13.040;2023-05-10T02:14:33;10.20;;;5.60;;
20695;SDS011;10507;52.754;13.040;2023-05-10T02:17:04;8.30;;;4.97;;
20695;SDS011;10507;52.754;13.040;2023-05-10T02:19:35;10.52;;;5.95;;
20695;SDS011;10507;52.754;13.040;2023-05-10T02:22:05;11.10;;;6.43;;
20695;SDS011;10507;52.754;13.040;2023-05-10T02:24:34;8.43;;;5.32;;
20695;SDS011;10507;52.754;13.040;2023-05-10T02:27:03;9.82;;;5.60;;
20695;SDS011;10507;52.754;13.040;2023-05-10T02:29:32;8.77;;;5.60;;
20695;SDS011;10507;52.754;13.040;2023-05-10T02:32:01;9.45;;;5.55;;
20695;SDS011;10507;52.754;13.040;2023-05-10T02:34:30;8.77;;;5.78;;
20695;SDS011;10507;52.754;13.040;2023-05-10T02:37:01;7.93;;;5.75;;
20695;SDS011;10507;52.754;13.040;2023-05-10T02:39:30;9.38;;;5.47;;
20695;SDS011;10507;52.754;13.040;2023-05-10T02:41:59;10.70;;;5.27;;
20695;SDS011;10507;52.754;13.040;2023-05-10T02:44:29;10.77;;;5.63;;
20695;SDS011;10507;52.754;13.040;2023-05-10T02:46:57;10.30;;;6.07;;
20695;SDS011;10507;52.754;13.040;2023-05-10T02:49:26;8.87;;;5.53;;
20695;SDS011;10507;52.754;13.040;2023-05-10T02:51:55;7.87;;;5.10;;
20695;SDS011;10507;52.754;13.040;2023-05-10T02:54:29;10.50;;;5.67;;
20695;SDS011;10507;52.754;13.040;2023-05-10T02:57:00;8.73;;;6.10;;
20695;SDS011;10507;52.754;13.040;2023-05-10T02:59:31;7.60;;;5.10;;
20695;SDS011;10507;52.754;13.040;2023-05-10T03:01:59;8.27;;;5.67;;
20695;SDS011;10507;52.754;13.040;2023-05-10T03:04:28;8.03;;;5.73;;
20695;SDS011;10507;52.754;13.040;2023-05-10T03:06:56;8.00;;;5.73;;
20695;SDS011;10507;52.754;13.040;2023-05-10T03:09:24;8.57;;;5.43;;
20695;SDS011;10507;52.754;13.040;2023-05-10T03:11:55;7.13;;;5.40;;
20695;SDS011;10507;52.754;13.040;2023-05-10T03:14:32;8.10;;;5.63;;
20695;SDS011;10507;52.754;13.040;2023-05-10T03:17:11;8.43;;;5.60;;
20695;SDS011;10507;52.754;13.040;2023-05-10T03:19:47;9.00;;;5.83;;
20695;SDS011;10507;52.754;13.040;2023-05-10T03:22:21;11.20;;;5.73;;
20695;SDS011;10507;52.754;13.040;2023-05-10T03:24:53;9.27;;;5.65;;
20695;SDS011;10507;52.754;13.040;2023-05-10T03:27:26;9.23;;;5.93;;
20695;SDS011;10507;52.754;13.040;2023-05-10T03:29:54;7.40;;;4.80;;
20695;SDS011;10507;52.754;13.040;2023-05-10T03:32:24;8.60;;;5.63;;
20695;SDS011;10507;52.754;13.040;2023-05-10T03:34:53;8.40;;;5.43;;
20695;SDS011;10507;52.754;13.040;2023-05-10T03:37:21;9.83;;;5.80;;
20695;SDS011;10507;52.754;13.040;2023-05-10T03:39:48;9.80;;;5.20;;
20695;SDS011;10507;52.754;13.040;2023-05-10T03:42:17;9.17;;;5.47;;
20695;SDS011;10507;52.754;13.040;2023-05-10T03:44:46;8.67;;;5.70;;
20695;SDS011;10507;52.754;13.040;2023-05-10T03:47:15;6.77;;;4.77;;
20695;SDS011;10507;52.754;13.040;2023-05-10T03:49:43;9.37;;;5.00;;
20695;SDS011;10507;52.754;13.040;2023-05-10T03:52:11;8.53;;;5.60;;
20695;SDS011;10507;52.754;13.040;2023-05-10T03:54:39;10.80;;;5.10;;
20695;SDS011;10507;52.754;13.040;2023-05-10T03:57:07;7.97;;;4.53;;
20695;SDS011;10507;52.754;13.040;2023-05-10T03:59:35;7.60;;;4.80;;
20695;SDS011;10507;52.754;13.040;2023-05-10T04:02:04;8.13;;;4.97;;
20695;SDS011;10507;52.754;13.040;2023-05-10T04:04:32;8.90;;;4.93;;
20695;SDS011;10507;52.754;13.040;2023-05-10T04:07:01;7.93;;;4.57;;
20695;SDS011;10507;52.754;13.040;2023-05-10T04:09:29;8.90;;;5.35;;
20695;SDS011;10507;52.754;13.040;2023-05-10T04:11:58;5.97;;;4.60;;
20695;SDS011;10507;52.754;13.040;2023-05-10T04:14:26;7.07;;;4.57;;
20695;SDS011;10507;52.754;13.040;2023-05-10T04:16:54;8.27;;;4.60;;
20695;SDS011;10507;52.754;13.040;2023-05-10T04:19:23;8.30;;;4.63;;
20695;SDS011;10507;52.754;13.040;2023-05-10T04:21:51;9.57;;;5.13;;
20695;SDS011;10507;52.754;13.040;2023-05-10T04:24:19;8.35;;;4.63;;
20695;SDS011;10507;52.754;13.040;2023-05-10T04:26:47;7.53;;;5.13;;
20695;SDS011;10507;52.754;13.040;2023-05-10T04:29:15;8.03;;;4.70;;
20695;SDS011;10507;52.754;13.040;2023-05-10T04:31:43;7.13;;;4.70;;
20695;SDS011;10507;52.754;13.040;2023-05-10T04:34:11;6.70;;;4.57;;
20695;SDS011;10507;52.754;13.040;2023-05-10T04:36:41;7.10;;;5.10;;
20695;SDS011;10507;52.754;13.040;2023-05-10T04:39:09;8.70;;;4.67;;
20695;SDS011;10507;52.754;13.040;2023-05-10T04:41:37;13.60;;;4.63;;
20695;SDS011;10507;52.754;13.040;2023-05-10T04:44:05;8.23;;;4.47;;
20695;SDS011;10507;52.754;13.040;2023-05-10T04:46:33;7.17;;;4.90;;
20695;SDS011;10507;52.754;13.040;2023-05-10T04:49:01;15.52;;;4.97;;
20695;SDS011;10507;52.754;13.040;2023-05-10T04:51:29;7.38;;;4.72;;
20695;SDS011;10507;52.754;13.040;2023-05-10T04:53:58;7.03;;;4.53;;
20695;SDS011;10507;52.754;13.040;2023-05-10T04:56:32;8.02;;;4.18;;
20695;SDS011;10507;52.754;13.040;2023-05-10T04:59:00;7.88;;;4.35;;
20695;SDS011;10507;52.754;13.040;2023-05-10T05:01:28;6.65;;;3.75;;
20695;SDS011;10507;52.754;13.040;2023-05-10T05:03:56;6.55;;;3.83;;
20695;SDS011;10507;52.754;13.040;2023-05-10T05:06:24;6.38;;;4.05;;
20695;SDS011;10507;52.754;13.040;2023-05-10T05:08:53;6.43;;;3.80;;
20695;SDS011;10507;52.754;13.040;2023-05-10T05:11:22;5.65;;;3.55;;
20695;SDS011;10507;52.754;13.040;2023-05-10T05:13:50;6.75;;;3.88;;
20695;SDS011;10507;52.754;13.040;2023-05-10T05:16:18;8.45;;;3.55;;
20695;SDS011;10507;52.754;13.040;2023-05-10T05:18:46;7.65;;;3.58;;
20695;SDS011;10507;52.754;13.040;2023-05-10T05:21:14;5.72;;;3.17;;
20695;SDS011;10507;52.754;13.040;2023-05-10T05:23:42;7.32;;;3.55;;
20695;SDS011;10507;52.754;13.040;2023-05-10T05:26:11;7.50;;;2.90;;
20695;SDS011;10507;52.754;13.040;2023-05-10T05:28:40;5.95;;;3.35;;
20695;SDS011;10507;52.754;13.040;2023-05-10T05:31:08;5.63;;;3.10;;
20695;SDS011;10507;52.754;13.040;2023-05-10T05:33:36;8.15;;;3.75;;
20695;SDS011;10507;52.754;13.040;2023-05-10T05:36:04;7.30;;;3.50;;
20695;SDS011;10507;52.754;13.040;2023-05-10T05:38:33;8.82;;;4.00;;
20695;SDS011;10507;52.754;13.040;2023-05-10T05:41:01;6.10;;;3.47;;
20695;SDS011;10507;52.754;13.040;2023-05-10T05:43:29;4.95;;;3.00;;
20695;SDS011;10507;52.754;13.040;2023-05-10T05:45:58;5.18;;;3.38;;
20695;SDS011;10507;52.754;13.040;2023-05-10T05:48:26;5.82;;;2.83;;
20695;SDS011;10507;52.754;13.040;2023-05-10T05:50:54;6.28;;;3.22;;
20695;SDS011;10507;52.754;13.040;2023-05-10T05:53:22;9.45;;;3.35;;
20695;SDS011;10507;52.754;13.040;2023-05-10T05:55:51;6.53;;;3.28;;
20695;SDS011;10507;52.754;13.040;2023-05-10T05:58:20;5.60;;;3.42;;
20695;SDS011;10507;52.754;13.040;2023-05-10T06:00:48;6.07;;;2.72;;
20695;SDS011;10507;52.754;13.040;2023-05-10T06:03:18;6.72;;;3.17;;
20695;SDS011;10507;52.754;13.040;2023-05-10T06:05:46;5.03;;;3.00;;
20695;SDS011;10507;52.754;13.040;2023-05-10T06:08:14;4.82;;;2.58;;
20695;SDS011;10507;52.754;13.040;2023-05-10T06:10:42;5.75;;;3.28;;
20695;SDS011;10507;52.754;13.040;2023-05-10T06:13:10;4.28;;;2.75;;
20695;SDS011;10507;52.754;13.040;2023-05-10T06:15:38;6.50;;;2.53;;
20695;SDS011;10507;52.754;13.040;2023-05-10T06:18:06;5.15;;;2.70;;
20695;SDS011;10507;52.754;13.040;2023-05-10T06:20:35;8.40;;;2.90;;
20695;SDS011;10507;52.754;13.040;2023-05-10T06:23:03;4.28;;;2.47;;
20695;SDS011;10507;52.754;13.040;2023-05-10T06:25:31;4.30;;;2.40;;
20695;SDS011;10507;52.754;13.040;2023-05-10T06:27:59;8.73;;;3.47;;
20695;SDS011;10507;52.754;13.040;2023-05-10T06:30:26;7.72;;;2.65;;
20695;SDS011;10507;52.754;13.040;2023-05-10T06:32:55;3.67;;;2.10;;
20695;SDS011;10507;52.754;13.040;2023-05-10T06:35:24;5.22;;;2.25;;
20695;SDS011;10507;52.754;13.040;2023-05-10T06:37:54;6.50;;;2.50;;
20695;SDS011;10507;52.754;13.040;2023-05-10T06:40:23;4.18;;;2.17;;
20695;SDS011;10507;52.754;13.040;2023-05-10T06:42:51;4.63;;;2.22;;
20695;SDS011;10507;52.754;13.040;2023-05-10T06:45:19;9.32;;;2.20;;
20695;SDS011;10507;52.754;13.040;2023-05-10T06:47:47;4.22;;;2.22;;
20695;SDS011;10507;52.754;13.040;2023-05-10T06:50:14;5.13;;;3.15;;
20695;SDS011;10507;52.754;13.040;2023-05-10T06:52:42;3.75;;;2.30;;
20695;SDS011;10507;52.754;13.040;2023-05-10T06:55:12;9.48;;;2.20;;
20695;SDS011;10507;52.754;13.040;2023-05-10T06:57:40;5.25;;;2.42;;
20695;SDS011;10507;52.754;13.040;2023-05-10T07:00:08;5.38;;;3.17;;
20695;SDS011;10507;52.754;13.040;2023-05-10T07:02:36;13.00;;;2.70;;
20695;SDS011;10507;52.754;13.040;2023-05-10T07:05:05;10.80;;;2.78;;
20695;SDS011;10507;52.754;13.040;2023-05-10T07:07:33;5.13;;;2.50;;
20695;SDS011;10507;52.754;13.040;2023-05-10T07:10:01;4.20;;;2.08;;
20695;SDS011;10507;52.754;13.040;2023-05-10T07:12:31;5.18;;;2.13;;
20695;SDS011;10507;52.754;13.040;2023-05-10T07:14:59;6.75;;;1.95;;
20695;SDS011;10507;52.754;13.040;2023-05-10T07:17:26;4.47;;;1.88;;
20695;SDS011;10507;52.754;13.040;2023-05-10T07:19:55;4.90;;;1.88;;
20695;SDS011;10507;52.754;13.040;2023-05-10T07:22:22;4.68;;;1.90;;
20695;SDS011;10507;52.754;13.040;2023-05-10T07:24:51;5.50;;;2.42;;
20695;SDS011;10507;52.754;13.040;2023-05-10T07:27:18;6.88;;;2.17;;
20695;SDS011;10507;52.754;13.040;2023-05-10T07:29:48;6.78;;;2.53;;
20695;SDS011;10507;52.754;13.040;2023-05-10T07:32:15;3.72;;;2.22;;
20695;SDS011;10507;52.754;13.040;2023-05-10T07:34:43;5.40;;;2.30;;
20695;SDS011;10507;52.754;13.040;2023-05-10T07:37:13;3.00;;;1.80;;
20695;SDS011;10507;52.754;13.040;2023-05-10T07:39:41;4.22;;;2.00;;
20695;SDS011;10507;52.754;13.040;2023-05-10T07:42:09;4.00;;;1.83;;
20695;SDS011;10507;52.754;13.040;2023-05-10T07:44:37;24.35;;;4.05;;
20695;SDS011;10507;52.754;13.040;2023-05-10T07:47:06;7.63;;;2.40;;
20695;SDS011;10507;52.754;13.040;2023-05-10T07:49:34;5.10;;;2.25;;
20695;SDS011;10507;52.754;13.040;2023-05-10T07:52:02;4.93;;;2.10;;
20695;SDS011;10507;52.754;13.040;2023-05-10T07:54:31;4.35;;;1.95;;
20695;SDS011;10507;52.754;13.040;2023-05-10T07:57:00;3.83;;;1.50;;
20695;SDS011;10507;52.754;13.040;2023-05-10T07:59:28;4.28;;;1.85;;
20695;SDS011;10507;52.754;13.040;2023-05-10T08:01:56;5.25;;;2.20;;
20695;SDS011;10507;52.754;13.040;2023-05-10T08:04:25;5.70;;;2.22;;
20695;SDS011;10507;52.754;13.040;2023-05-10T08:06:53;3.22;;;2.15;;
20695;SDS011;10507;52.754;13.040;2023-05-10T08:09:21;6.82;;;2.20;;
20695;SDS011;10507;52.754;13.040;2023-05-10T08:11:50;3.40;;;2.08;;
20695;SDS011;10507;52.754;13.040;2023-05-10T08:14:18;3.10;;;1.95;;
20695;SDS011;10507;52.754;13.040;2023-05-10T08:16:46;3.53;;;2.38;;
20695;SDS011;10507;52.754;13.040;2023-05-10T08:19:14;4.50;;;1.77;;
20695;SDS011;10507;52.754;13.040;2023-05-10T08:21:46;5.97;;;2.40;;
20695;SDS011;10507;52.754;13.040;2023-05-10T08:24:14;4.10;;;2.30;;
20695;SDS011;10507;52.754;13.040;2023-05-10T08:26:42;5.22;;;2.00;;
20695;SDS011;10507;52.754;13.040;2023-05-10T08:29:10;3.85;;;2.28;;
20695;SDS011;10507;52.754;13.040;2023-05-10T08:31:38;8.98;;;2.60;;
20695;SDS011;10507;52.754;13.040;2023-05-10T08:34:06;5.25;;;2.17;;
20695;SDS011;10507;52.754;13.040;2023-05-10T08:36:34;5.13;;;2.65;;
20695;SDS011;10507;52.754;13.040;2023-05-10T08:39:04;3.33;;;2.05;;
20695;SDS011;10507;52.754;13.040;2023-05-10T08:41:41;4.47;;;2.22;;
20695;SDS011;10507;52.754;13.040;2023-05-10T08:44:12;3.88;;;1.92;;
20695;SDS011;10507;52.754;13.040;2023-05-10T08:46:42;4.20;;;2.00;;
20695;SDS011;10507;52.754;13.040;2023-05-10T08:49:15;4.25;;;2.22;;
20695;SDS011;10507;52.754;13.040;2023-05-10T08:51:47;5.35;;;2.13;;
20695;SDS011;10507;52.754;13.040;2023-05-10T08:54:20;3.38;;;1.83;;
20695;SDS011;10507;52.754;13.040;2023-05-10T08:56:48;4.03;;;2.03;;
20695;SDS011;10507;52.754;13.040;2023-05-10T08:59:16;4.85;;;2.13;;
20695;SDS011;10507;52.754;13.040;2023-05-10T09:01:44;4.43;;;2.38;;
20695;SDS011;10507;52.754;13.040;2023-05-10T09:04:15;3.83;;;2.22;;
20695;SDS011;10507;52.754;13.040;2023-05-10T09:06:43;4.45;;;2.20;;
20695;SDS011;10507;52.754;13.040;2023-05-10T09:09:11;3.92;;;1.90;;
20695;SDS011;10507;52.754;13.040;2023-05-10T09:11:41;4.15;;;2.42;;
20695;SDS011;10507;52.754;13.040;2023-05-10T09:14:09;5.00;;;2.42;;
20695;SDS011;10507;52.754;13.040;2023-05-10T09:16:37;4.88;;;2.20;;
20695;SDS011;10507;52.754;13.040;2023-05-10T09:19:05;4.82;;;2.17;;
20695;SDS011;10507;52.754;13.040;2023-05-10T09:21:35;5.72;;;2.67;;
20695;SDS011;10507;52.754;13.040;2023-05-10T09:24:04;5.65;;;2.35;;
20695;SDS011;10507;52.754;13.040;2023-05-10T09:26:33;5.57;;;2.22;;
20695;SDS011;10507;52.754;13.040;2023-05-10T09:29:03;9.50;;;2.95;;
20695;SDS011;10507;52.754;13.040;2023-05-10T09:31:45;4.20;;;2.10;;
20695;SDS011;10507;52.754;13.040;2023-05-10T09:34:17;4.82;;;2.13;;
20695;SDS011;10507;52.754;13.040;2023-05-10T09:36:53;4.35;;;2.30;;
20695;SDS011;10507;52.754;13.040;2023-05-10T09:39:29;3.60;;;2.25;;
20695;SDS011;10507;52.754;13.040;2023-05-10T09:41:59;5.32;;;2.33;;
20695;SDS011;10507;52.754;13.040;2023-05-10T09:44:31;4.93;;;2.00;;
20695;SDS011;10507;52.754;13.040;2023-05-10T09:47:00;3.92;;;2.17;;
20695;SDS011;10507;52.754;13.040;2023-05-10T09:49:28;6.00;;;2.13;;
20695;SDS011;10507;52.754;13.040;2023-05-10T09:52:00;5.68;;;2.08;;
20695;SDS011;10507;52.754;13.040;2023-05-10T09:54:30;4.10;;;2.28;;
20695;SDS011;10507;52.754;13.040;2023-05-10T09:56:58;4.93;;;2.47;;
20695;SDS011;10507;52.754;13.040;2023-05-10T09:59:27;4.82;;;2.45;;
20695;SDS011;10507;52.754;13.040;2023-05-10T10:01:57;4.38;;;2.35;;
20695;SDS011;10507;52.754;13.040;2023-05-10T10:04:27;3.58;;;2.10;;
20695;SDS011;10507;52.754;13.040;2023-05-10T10:06:58;4.43;;;2.13;;
20695;SDS011;10507;52.754;13.040;2023-05-10T10:09:28;5.90;;;2.47;;
20695;SDS011;10507;52.754;13.040;2023-05-10T10:11:56;3.65;;;2.00;;
20695;SDS011;10507;52.754;13.040;2023-05-10T10:14:24;3.75;;;1.98;;
20695;SDS011;10507;52.754;13.040;2023-05-10T10:16:53;4.38;;;2.20;;
20695;SDS011;10507;52.754;13.040;2023-05-10T10:19:35;4.70;;;2.20;;
20695;SDS011;10507;52.754;13.040;2023-05-10T10:22:03;6.15;;;2.97;;
20695;SDS011;10507;52.754;13.040;2023-05-10T10:24:31;3.88;;;2.10;;
20695;SDS011;10507;52.754;13.040;2023-05-10T10:27:00;3.22;;;2.10;;
20695;SDS011;10507;52.754;13.040;2023-05-10T10:29:35;4.43;;;2.33;;
20695;SDS011;10507;52.754;13.040;2023-05-10T10:32:09;6.28;;;2.00;;
20695;SDS011;10507;52.754;13.040;2023-05-10T10:34:48;3.22;;;2.30;;
20695;SDS011;10507;52.754;13.040;2023-05-10T10:37:17;5.03;;;2.25;;
20695;SDS011;10507;52.754;13.040;2023-05-10T10:39:45;6.72;;;2.45;;
20695;SDS011;10507;52.754;13.040;2023-05-10T10:45:17;3.63;;;2.10;;
20695;SDS011;10507;52.754;13.040;2023-05-10T10:47:46;4.63;;;2.00;;
20695;SDS011;10507;52.754;13.040;2023-05-10T10:50:15;6.97;;;2.53;;
20695;SDS011;10507;52.754;13.040;2023-05-10T10:52:43;4.78;;;2.08;;
20695;SDS011;10507;52.754;13.040;2023-05-10T10:55:12;3.85;;;2.35;;
20695;SDS011;10507;52.754;13.040;2023-05-10T10:57:45;3.35;;;1.90;;
20695;SDS011;10507;52.754;13.040;2023-05-10T11:00:18;7.47;;;2.47;;
20695;SDS011;10507;52.754;13.040;2023-05-10T11:02:51;3.33;;;2.10;;
20695;SDS011;10507;52.754;13.040;2023-05-10T11:05:33;4.43;;;2.15;;
20695;SDS011;10507;52.754;13.040;2023-05-10T11:08:09;5.15;;;3.90;;
20695;SDS011;10507;52.754;13.040;2023-05-10T11:10:38;3.53;;;1.90;;
20695;SDS011;10507;52.754;13.040;2023-05-10T11:13:07;4.50;;;1.90;;
20695;SDS011;10507;52.754;13.040;2023-05-10T11:15:36;3.40;;;2.17;;
20695;SDS011;10507;52.754;13.040;2023-05-10T11:18:18;3.53;;;2.10;;
20695;SDS011;10507;52.754;13.040;2023-05-10T11:20:51;6.35;;;2.42;;
20695;SDS011;10507;52.754;13.040;2023-05-10T11:23:19;3.80;;;1.95;;
20695;SDS011;10507;52.754;13.040;2023-05-10T11:25:47;3.80;;;2.45;;
20695;SDS011;10507;52.754;13.040;2023-05-10T11:28:16;4.75;;;1.88;;
20695;SDS011;10507;52.754;13.040;2023-05-10T11:30:44;4.25;;;2.55;;
20695;SDS011;10507;52.754;13.040;2023-05-10T11:33:16;4.85;;;2.13;;
20695;SDS011;10507;52.754;13.040;2023-05-10T11:35:45;2.83;;;1.70;;
20695;SDS011;10507;52.754;13.040;2023-05-10T11:38:15;5.00;;;2.08;;
20695;SDS011;10507;52.754;13.040;2023-05-10T11:40:42;3.10;;;1.80;;
20695;SDS011;10507;52.754;13.040;2023-05-10T11:43:10;2.83;;;1.90;;
20695;SDS011;10507;52.754;13.040;2023-05-10T11:45:40;4.07;;;2.10;;
20695;SDS011;10507;52.754;13.040;2023-05-10T11:48:09;5.55;;;2.03;;
20695;SDS011;10507;52.754;13.040;2023-05-10T11:50:37;7.47;;;2.35;;
20695;SDS011;10507;52.754;13.040;2023-05-10T11:53:05;3.90;;;2.20;;
20695;SDS011;10507;52.754;13.040;2023-05-10T11:55:34;4.43;;;2.00;;
20695;SDS011;10507;52.754;13.040;2023-05-10T11:58:02;4.95;;;2.17;;
20695;SDS011;10507;52.754;13.040;2023-05-10T12:00:31;3.65;;;2.00;;
20695;SDS011;10507;52.754;13.040;2023-05-10T12:03:00;3.35;;;2.38;;
20695;SDS011;10507;52.754;13.040;2023-05-10T12:05:31;4.80;;;1.98;;
20695;SDS011;10507;52.754;13.040;2023-05-10T12:08:11;2.67;;;1.80;;
20695;SDS011;10507;52.754;13.040;2023-05-10T12:10:42;3.90;;;1.80;;
20695;SDS011;10507;52.754;13.040;2023-05-10T12:13:13;3.70;;;2.10;;
20695;SDS011;10507;52.754;13.040;2023-05-10T12:15:42;4.53;;;1.90;;
20695;SDS011;10507;52.754;13.040;2023-05-10T12:18:11;4.30;;;2.15;;
20695;SDS011;10507;52.754;13.040;2023-05-10T12:20:40;3.25;;;1.73;;
20695;SDS011;10507;52.754;13.040;2023-05-10T12:23:09;4.07;;;2.10;;
20695;SDS011;10507;52.754;13.040;2023-05-10T12:25:37;5.97;;;2.25;;
20695;SDS011;10507;52.754;13.040;2023-05-10T12:28:08;3.75;;;1.92;;
20695;SDS011;10507;52.754;13.040;2023-05-10T12:30:37;5.75;;;2.05;;
20695;SDS011;10507;52.754;13.040;2023-05-10T12:33:09;3.75;;;1.75;;
20695;SDS011;10507;52.754;13.040;2023-05-10T12:35:44;2.45;;;1.92;;
20695;SDS011;10507;52.754;13.040;2023-05-10T12:38:24;4.95;;;2.20;;
20695;SDS011;10507;52.754;13.040;2023-05-10T12:40:52;2.65;;;1.95;;
20695;SDS011;10507;52.754;13.040;2023-05-10T12:43:22;3.05;;;2.00;;
20695;SDS011;10507;52.754;13.040;2023-05-10T12:45:50;3.88;;;2.10;;
20695;SDS011;10507;52.754;13.040;2023-05-10T12:48:18;6.88;;;2.03;;
20695;SDS011;10507;52.754;13.040;2023-05-10T12:50:46;4.45;;;2.10;;
20695;SDS011;10507;52.754;13.040;2023-05-10T12:53:14;5.65;;;2.05;;
20695;SDS011;10507;52.754;13.040;2023-05-10T12:55:42;4.80;;;1.90;;
20695;SDS011;10507;52.754;13.040;2023-05-10T12:58:11;4.82;;;2.20;;
20695;SDS011;10507;52.754;13.040;2023-05-10T13:00:44;5.47;;;2.08;;
20695;SDS011;10507;52.754;13.040;2023-05-10T13:03:12;4.32;;;1.80;;
20695;SDS011;10507;52.754;13.040;2023-05-10T13:05:40;3.42;;;1.77;;
20695;SDS011;10507;52.754;13.040;2023-05-10T13:08:08;19.67;;;3.67;;
20695;SDS011;10507;52.754;13.040;2023-05-10T13:10:36;5.57;;;1.70;;
20695;SDS011;10507;52.754;13.040;2023-05-10T13:13:04;4.25;;;1.92;;
20695;SDS011;10507;52.754;13.040;2023-05-10T13:15:33;7.03;;;2.30;;
20695;SDS011;10507;52.754;13.040;2023-05-10T13:18:03;8.63;;;2.50;;
20695;SDS011;10507;52.754;13.040;2023-05-10T13:20:31;5.60;;;2.00;;
20695;SDS011;10507;52.754;13.040;2023-05-10T13:22:58;2.90;;;1.63;;
20695;SDS011;10507;52.754;13.040;2023-05-10T13:25:26;4.40;;;1.80;;
20695;SDS011;10507;52.754;13.040;2023-05-10T13:27:54;4.35;;;1.77;;
20695;SDS011;10507;52.754;13.040;2023-05-10T13:30:22;3.72;;;1.85;;
20695;SDS011;10507;52.754;13.040;2023-05-10T13:32:51;5.05;;;1.60;;
20695;SDS011;10507;52.754;13.040;2023-05-10T13:35:20;6.70;;;2.20;;
20695;SDS011;10507;52.754;13.040;2023-05-10T13:37:48;3.92;;;2.15;;
20695;SDS011;10507;52.754;13.040;2023-05-10T13:40:16;3.88;;;2.20;;
20695;SDS011;10507;52.754;13.040;2023-05-10T13:42:44;7.30;;;1.92;;
20695;SDS011;10507;52.754;13.040;2023-05-10T13:45:12;4.75;;;2.10;;
20695;SDS011;10507;52.754;13.040;2023-05-10T13:47:40;5.47;;;2.10;;
20695;SDS011;10507;52.754;13.040;2023-05-10T13:50:08;3.70;;;2.13;;
20695;SDS011;10507;52.754;13.040;2023-05-10T13:52:37;4.15;;;1.90;;
20695;SDS011;10507;52.754;13.040;2023-05-10T13:55:05;4.93;;;1.88;;
20695;SDS011;10507;52.754;13.040;2023-05-10T13:57:33;3.65;;;1.95;;
20695;SDS011;10507;52.754;13.040;2023-05-10T14:00:02;3.53;;;1.80;;
20695;SDS011;10507;52.754;13.040;2023-05-10T14:02:30;5.47;;;1.88;;
20695;SDS011;10507;52.754;13.040;2023-05-10T14:04:58;3.08;;;1.80;;
20695;SDS011;10507;52.754;13.040;2023-05-10T14:07:26;4.88;;;2.00;;
20695;SDS011;10507;52.754;13.040;2023-05-10T14:09:55;6.57;;;2.00;;
20695;SDS011;10507;52.754;13.040;2023-05-10T14:12:23;3.70;;;1.75;;
20695;SDS011;10507;52.754;13.040;2023-05-10T14:14:51;8.63;;;2.22;;
20695;SDS011;10507;52.754;13.040;2023-05-10T14:17:19;4.47;;;1.90;;
20695;SDS011;10507;52.754;13.040;2023-05-10T14:19:48;4.07;;;2.10;;
20695;SDS011;10507;52.754;13.040;2023-05-10T14:22:16;5.03;;;2.00;;
20695;SDS011;10507;52.754;13.040;2023-05-10T14:24:44;3.40;;;2.00;;
20695;SDS011;10507;52.754;13.040;2023-05-10T14:27:14;4.45;;;1.90;;
20695;SDS011;10507;52.754;13.040;2023-05-10T14:29:42;7.15;;;2.30;;
20695;SDS011;10507;52.754;13.040;2023-05-10T14:32:10;12.18;;;2.50;;
20695;SDS011;10507;52.754;13.040;2023-05-10T14:34:38;4.25;;;2.15;;
20695;SDS011;10507;52.754;13.040;2023-05-10T14:37:06;3.92;;;1.98;;
20695;SDS011;10507;52.754;13.040;2023-05-10T14:39:34;3.60;;;2.05;;
20695;SDS011;10507;52.754;13.040;2023-05-10T14:42:02;3.15;;;1.92;;
20695;SDS011;10507;52.754;13.040;2023-05-10T14:44:31;4.13;;;2.20;;
20695;SDS011;10507;52.754;13.040;2023-05-10T14:46:59;3.83;;;1.77;;
20695;SDS011;10507;52.754;13.040;2023-05-10T14:49:26;4.32;;;2.05;;
20695;SDS011;10507;52.754;13.040;2023-05-10T14:51:55;4.93;;;2.75;;